Melbourne International Airport
KMLB : now visible

Aeroporto :











RITROVATECI SU...

 
LOGIN :

Iscrizione | Disclaimer

   EN    FR    IT 

 









Sommario :    VFR   VFR Marginale   IFR   IFR Intensivo   IFR Molto Intensivo
Visibilità : 
Base nubi : 
>= 8 km
>= 3000ft
5 / 8 km
1000 / 3000 ft
1500m / 5 km
500 / 1000 ft
800 / 1500m
200 / 500 ft
< 800m
< 200 ft
Simboli :   Temporali  Nebbia  Neve Forte  Precipitazioni Forti  Vento > 20 kt






- Altitudine del aeroporto : 33 ft
- Codice IATA : MLB


KMLB - Melbourne International

ULTIMO METAR :
  • 120453Z 00000KT 10SM CLR 18/17 A3005 RMK AO2 SLP175 T01830172 402720178

METARs OBSOLETI :
  • 120353Z 00000KT 10SM CLR 19/19 A3004 RMK AO2 SLP171 T01940189
  • 120253Z 00000KT 10SM CLR 21/19 A3006 RMK AO2 SLP177 T02060194 58005

TAF KMLB
Valido dal 12 a 00 ore il 13 a 00 ore UTC


112337Z 1200/1224 06006KT P6SM VCSH SCT030 BKN050
FM120300 VRB03KT P6SM SCT040 BKN070
FM121500 25007KT P6SM SCT030 BKN250



MetMap, La meteo Aeronautica in un colpo d'occhio ! - Copyright ORBIFLY Dicembre 2007 - Disclaimer

ORBIFLY MET'MAP TEAM :

Programmazione e sviluppo : Alexandra Zaïnal
Concezione e sviluppo : Baudouin d'Aumeries
Co-Programmazione e sviluppo : Marc-Olivier Méhu
Supporto tecnico e logistico : Manuel Goepfert
Aiuto per la traduzione : Arnaldo La Scala

Contatto : metmap@orbifly.com




FONTI E CREDITI :

   NOAA       Earth
Advisory